Betancuria — EAMH — position and weather

sailwx.info

Track history (hours):
 
Tides and Currents Weather Stations Pressure Air Temp Water Temp Dewpoint Dewpoint Depression Visibility Wind Speed Wind Dir Waves Ship Positions

Betancuria

Last reported at 2017-Apr-28 11:02 UTC. Time now 2017-Apr-30 20:31 UTC.
Position N 49°48' W 003°23'.

Length 141 m; draft 4.7 m.

Type: Ship. MMSI: 224471000.

Date/timePositionNaut miles runAvg speedWind from/ knotsBaromVisibWave heightAir tempDewpointWater temp
2017-Apr-28 11:02N 49°48' W 003°23'011.4
2017-Apr-28 11:00N 49°48' W 003°22'811.0
2017-Apr-28 10:18N 49°52' W 003°12'10 9.7
2017-Apr-28 09:17N 49°57' W 002°59'2 8.9
2017-Apr-28 09:00N 49°58' W 002°55'4 8.7
2017-Apr-28 08:30N 49°60' W 002°49'5 8.5
2017-Apr-28 07:58N 50°01' W 002°42'9311.9
2017-Apr-28 00:12N 50°26' W 000°23'210.4
2017-Apr-28 00:01N 50°27' W 000°20'510.0
2017-Apr-27 23:30N 50°28' W 000°12'6 9.2
2017-Apr-27 22:49N 50°30' W 000°03'3 8.5
2017-Apr-27 22:30N 50°31' E 000°01'5 8.0
2017-Apr-27 21:51N 50°32' E 000°09'3 7.7
2017-Apr-27 21:30N 50°33' E 000°13'4 7.7
2017-Apr-27 20:58N 50°34' E 000°20'4 8.1
2017-Apr-27 20:26N 50°35' E 000°26'4 9.0
2017-Apr-27 20:00N 50°36' E 000°32'5 9.9
2017-Apr-27 19:30N 50°39' E 000°39'510.9
2017-Apr-27 19:00N 50°42' E 000°46'611.7
2017-Apr-27 18:31N 50°45' E 000°54'1912.0
2017-Apr-27 16:56N 50°55' E 001°19'511.5
2017-Apr-27 16:30N 50°59' E 001°24'510.5
2017-Apr-27 16:01N 51°03' E 001°30'5 9.3
2017-Apr-27 15:30N 51°07' E 001°35'4 8.5
2017-Apr-27 15:00N 51°10' E 001°39'8 7.7
2017-Apr-27 14:00N 51°16' E 001°47'4 7.7
2017-Apr-27 13:30N 51°19' E 001°49'4 8.1
2017-Apr-27 13:00N 51°23' E 001°51'4 8.7
2017-Apr-27 12:30N 51°27' E 001°53'5 9.8
2017-Apr-27 12:01N 51°32' E 001°50'510.5
2017-Apr-27 11:31N 51°37' E 001°47'611.1
2017-Apr-27 11:00N 51°42' E 001°45'612.2
2017-Apr-27 10:31N 51°48' E 001°44'712.8
2017-Apr-27 10:00N 51°55' E 001°45'612.9
2017-Apr-27 09:30N 52°01' E 001°46'713.2
2017-Apr-27 09:00N 52°07' E 001°48'613.0
2017-Apr-27 08:31N 52°14' E 001°50'3112.9
2017-Apr-27 06:05N 52°45' E 001°55'111.9
2017-Apr-27 06:00N 52°46' E 001°54'611.9
2017-Apr-27 05:30N 52°49' E 001°46'611.1
2017-Apr-27 05:00N 52°53' E 001°39'510.7
2017-Apr-27 04:31N 52°57' E 001°33'5 9.9
2017-Apr-27 04:00N 53°01' E 001°28'5 9.4
2017-Apr-27 03:30N 53°04' E 001°23'5 9.1
2017-Apr-27 03:00N 53°08' E 001°20'4 8.8
2017-Apr-27 02:30N 53°12' E 001°16'79 9.0
2017-Apr-26 17:46N 54°24' E 000°20'311.1
2017-Apr-26 17:30N 54°26' E 000°18'611.3
2017-Apr-26 17:00N 54°31' E 000°14'611.5
2017-Apr-26 16:31N 54°37' E 000°09'611.6
2017-Apr-26 16:00N 54°42' E 000°05'611.6
2017-Apr-26 15:31N 54°47' E 000°01'14410.4
2017-Apr-26 01:37N 56°57' W 001°51'111.2
2017-Apr-26 01:31N 56°58' W 001°52'611.1
2017-Apr-26 01:01N 57°03' W 001°57'611.5
2017-Apr-26 00:30N 57°08' W 001°59'3 6.3
2017-Apr-26 00:01N 57°09' W 002°05'0 0.3
2017-Apr-25 23:29N 57°09' W 002°05'0 0.0
2017-Apr-25 22:59N 57°09' W 002°05'0 0.0
2017-Apr-25 22:29N 57°09' W 002°05'0 0.0
2017-Apr-25 21:59N 57°09' W 002°05'0 0.0
2017-Apr-25 21:25N 57°09' W 002°05'0 0.0
2017-Apr-25 20:58N 57°09' W 002°05'0 0.0
2017-Apr-25 20:28N 57°09' W 002°05'0 0.0
2017-Apr-25 19:58N 57°09' W 002°05'0 0.0
2017-Apr-25 19:28N 57°09' W 002°05'0 0.0
2017-Apr-25 18:58N 57°09' W 002°05'0 0.0
2017-Apr-25 18:28N 57°09' W 002°05'0 0.0
2017-Apr-25 17:58N 57°09' W 002°05'0 0.0
2017-Apr-25 17:28N 57°09' W 002°05'0 0.0
2017-Apr-25 16:58N 57°09' W 002°05'0 0.0
2017-Apr-25 16:28N 57°09' W 002°05'0 0.0
2017-Apr-25 15:58N 57°09' W 002°05'0 0.0
2017-Apr-25 15:28N 57°09' W 002°05'0 0.0
2017-Apr-25 14:55N 57°09' W 002°05'0 0.0
2017-Apr-25 14:28N 57°09' W 002°05'0 0.0
2017-Apr-25 13:28N 57°09' W 002°05'0 0.0
2017-Apr-25 12:58N 57°09' W 002°05'0 0.0
2017-Apr-25 12:28N 57°09' W 002°05'0 0.0
2017-Apr-25 11:58N 57°09' W 002°05'0 0.0
2017-Apr-25 11:28N 57°09' W 002°05'0 0.0
2017-Apr-25 10:58N 57°09' W 002°05'0 0.0
2017-Apr-25 10:28N 57°09' W 002°05'0 0.0
2017-Apr-25 09:58N 57°09' W 002°05'0 0.0
2017-Apr-25 09:28N 57°09' W 002°05'0 0.0
2017-Apr-25 08:58N 57°09' W 002°05'0 0.0
2017-Apr-25 08:28N 57°09' W 002°05'0 0.0
2017-Apr-25 07:58N 57°09' W 002°05'0 0.0
2017-Apr-25 07:28N 57°09' W 002°05'0 0.0
2017-Apr-25 06:55N 57°09' W 002°05'0 0.0
2017-Apr-25 06:25N 57°09' W 002°05'0 0.0
2017-Apr-25 05:55N 57°09' W 002°05'0 0.0
2017-Apr-25 05:28N 57°09' W 002°05'0 0.0
2017-Apr-25 04:55N 57°09' W 002°05'0 0.0
2017-Apr-25 04:28N 57°09' W 002°05'0 0.0
2017-Apr-25 03:58N 57°09' W 002°05'0 0.0
2017-Apr-25 03:28N 57°09' W 002°05'0 0.0
2017-Apr-25 02:58N 57°09' W 002°05'0 0.0
2017-Apr-25 02:28N 57°09' W 002°05'0 0.0
2017-Apr-25 01:58N 57°09' W 002°05'0 0.0
2017-Apr-25 01:28N 57°09' W 002°05'0 0.0
2017-Apr-25 00:58N 57°09' W 002°05'0 0.0
2017-Apr-25 00:28N 57°09' W 002°05'0 0.0
2017-Apr-24 23:55N 57°09' W 002°05'0 0.0
2017-Apr-24 23:28N 57°09' W 002°05'0 0.0
2017-Apr-24 22:58N 57°09' W 002°05'0 0.0
2017-Apr-24 22:28N 57°09' W 002°05'0 0.0
2017-Apr-24 21:58N 57°09' W 002°05'0 0.0
2017-Apr-24 21:25N 57°09' W 002°05'0 0.0
2017-Apr-24 20:58N 57°09' W 002°05'0 0.0
2017-Apr-24 20:28N 57°09' W 002°05'0 0.0
2017-Apr-24 19:55N 57°09' W 002°05'0 0.0
2017-Apr-24 19:28N 57°09' W 002°05'0 0.0
2017-Apr-24 18:58N 57°09' W 002°05'0 0.0
2017-Apr-24 18:28N 57°09' W 002°05'0 0.0
2017-Apr-24 17:58N 57°09' W 002°05'0 0.0
2017-Apr-24 17:28N 57°09' W 002°05'0 0.0
2017-Apr-24 16:58N 57°09' W 002°05'0 0.0
2017-Apr-24 16:28N 57°09' W 002°05'0 0.0
2017-Apr-24 15:58N 57°09' W 002°05'0 0.0
2017-Apr-24 15:28N 57°09' W 002°05'0 0.0
2017-Apr-24 14:55N 57°09' W 002°05'0 0.0
2017-Apr-24 14:28N 57°09' W 002°05'0 0.0
2017-Apr-24 13:28N 57°09' W 002°05'0 0.0
2017-Apr-24 12:58N 57°09' W 002°05'0 0.0
2017-Apr-24 12:25N 57°09' W 002°05'0 0.0
2017-Apr-24 11:55N 57°09' W 002°05'0 0.0
2017-Apr-24 11:28N 57°09' W 002°05'0 0.0
2017-Apr-24 10:58N 57°09' W 002°05'0 0.0
2017-Apr-24 10:28N 57°09' W 002°05'0 0.0
2017-Apr-24 09:58N 57°09' W 002°05'0 0.0
2017-Apr-24 09:28N 57°09' W 002°05'0 0.0
2017-Apr-24 08:58N 57°09' W 002°05'0 0.0
2017-Apr-24 08:28N 57°09' W 002°05'0 0.0
2017-Apr-24 07:58N 57°09' W 002°05'0 0.0
2017-Apr-24 07:28N 57°09' W 002°05'0 0.0
2017-Apr-24 06:55N 57°09' W 002°05'0 0.0
2017-Apr-24 06:25N 57°09' W 002°05'0 0.0
2017-Apr-24 05:55N 57°09' W 002°05'0 0.0
2017-Apr-24 05:25N 57°09' W 002°05'0 0.0
2017-Apr-24 04:58N 57°09' W 002°05'0 0.0
2017-Apr-24 04:28N 57°09' W 002°05'0 0.0
2017-Apr-24 03:58N 57°09' W 002°05'0 0.0
2017-Apr-24 03:28N 57°09' W 002°05'0 0.0
2017-Apr-24 02:58N 57°09' W 002°05'0 0.0
2017-Apr-24 02:28N 57°09' W 002°05'0 0.0
2017-Apr-24 01:58N 57°09' W 002°05'0 0.0
2017-Apr-24 01:25N 57°09' W 002°05'0 0.0
2017-Apr-24 00:58N 57°09' W 002°05'0 0.0
2017-Apr-24 00:28N 57°09' W 002°05'0 0.0
2017-Apr-23 23:58N 57°09' W 002°05'0 0.0
2017-Apr-23 23:28N 57°09' W 002°05'0 0.0
2017-Apr-23 22:58N 57°09' W 002°05'0 0.0
2017-Apr-23 22:28N 57°09' W 002°05'0 0.0
2017-Apr-23 21:55N 57°09' W 002°05'0 0.0
2017-Apr-23 21:25N 57°09' W 002°05'0 0.0
2017-Apr-23 20:58N 57°09' W 002°05'0 0.0
2017-Apr-23 20:28N 57°09' W 002°05'0 0.0
2017-Apr-23 19:58N 57°09' W 002°05'0 0.0
2017-Apr-23 19:28N 57°09' W 002°05'0 0.0
2017-Apr-23 18:55N 57°09' W 002°05'0 0.0
2017-Apr-23 18:28N 57°09' W 002°05'0 0.0
2017-Apr-23 17:58N 57°09' W 002°05'0 0.0
2017-Apr-23 17:28N 57°09' W 002°05'0 0.0
2017-Apr-23 16:55N 57°09' W 002°05'0 0.0
2017-Apr-23 16:28N 57°09' W 002°05'0 0.0
2017-Apr-23 15:58N 57°09' W 002°05'0 0.0
2017-Apr-23 15:28N 57°09' W 002°05'0 0.0
2017-Apr-23 14:55N 57°09' W 002°05'0 0.0
2017-Apr-23 13:55N 57°09' W 002°05'0 0.0
2017-Apr-23 13:28N 57°09' W 002°05'0 0.0
2017-Apr-23 12:55N 57°09' W 002°05'0 0.0
2017-Apr-23 12:28N 57°09' W 002°05'0 0.0
2017-Apr-23 11:58N 57°09' W 002°05'0 0.0
2017-Apr-23 11:28N 57°09' W 002°05'0 0.0
2017-Apr-23 10:58N 57°09' W 002°05'0 0.0
2017-Apr-23 10:25N 57°09' W 002°05'0 0.0
2017-Apr-23 09:58N 57°09' W 002°05'0 0.0
2017-Apr-23 09:28N 57°09' W 002°05'0 0.0
2017-Apr-23 08:58N 57°09' W 002°05'0 0.0
2017-Apr-23 08:28N 57°09' W 002°05'0 0.0
2017-Apr-23 07:58N 57°09' W 002°05'0 0.0
2017-Apr-23 07:28N 57°09' W 002°05'0 0.0
2017-Apr-23 06:58N 57°09' W 002°05'0 0.0
2017-Apr-23 06:28N 57°09' W 002°05'0 0.0
2017-Apr-23 05:58N 57°09' W 002°05'0 0.0
2017-Apr-23 05:28N 57°09' W 002°05'0 0.0
2017-Apr-23 04:58N 57°09' W 002°05'0 0.0
2017-Apr-23 04:28N 57°09' W 002°05'0 0.0
2017-Apr-23 03:58N 57°09' W 002°05'0 0.0
2017-Apr-23 03:28N 57°09' W 002°05'0 0.0
2017-Apr-23 02:58N 57°09' W 002°05'0 0.0
2017-Apr-23 02:28N 57°09' W 002°05'0 0.0
2017-Apr-23 01:58N 57°09' W 002°05'0 0.0
2017-Apr-23 01:28N 57°09' W 002°05'0 0.0
2017-Apr-23 00:58N 57°09' W 002°05'0 0.0
2017-Apr-23 00:28N 57°09' W 002°05'0 0.0
2017-Apr-22 23:58N 57°09' W 002°05'0 0.0
2017-Apr-22 23:28N 57°09' W 002°05'0 0.0
2017-Apr-22 22:58N 57°09' W 002°05'0 0.0
2017-Apr-22 22:28N 57°09' W 002°05'0 0.0
2017-Apr-22 21:58N 57°09' W 002°05'0 0.0
2017-Apr-22 21:28N 57°09' W 002°05'0 0.0
2017-Apr-22 20:58N 57°09' W 002°05'0 0.0
2017-Apr-22 20:28N 57°09' W 002°05'0 0.0
2017-Apr-22 19:58N 57°09' W 002°05'0 0.0
2017-Apr-22 19:28N 57°09' W 002°05'0 0.0
2017-Apr-22 18:58N 57°09' W 002°05'0 0.1
2017-Apr-22 18:30N 57°09' W 002°05'1 1.8
2017-Apr-22 18:01N 57°09' W 002°04'3 6.3
2017-Apr-22 17:31N 57°11' W 001°59'0 0.6
2017-Apr-22 17:00N 57°11' W 001°59'0 0.0
2017-Apr-22 16:30N 57°11' W 001°59'0 0.1
2017-Apr-22 16:00N 57°11' W 001°59'0 0.0
2017-Apr-22 15:30N 57°11' W 001°59'0 0.1
2017-Apr-22 15:00N 57°11' W 001°59'0 0.0
2017-Apr-22 14:30N 57°11' W 001°59'0 0.0
2017-Apr-22 13:30N 57°11' W 001°59'0 0.0
2017-Apr-22 13:00N 57°11' W 001°59'0 0.0
2017-Apr-22 12:30N 57°11' W 001°59'0 0.0
2017-Apr-22 12:00N 57°11' W 001°59'0 0.0
2017-Apr-22 11:30N 57°11' W 001°59'0 0.0
2017-Apr-22 11:00N 57°11' W 001°59'0 0.0
2017-Apr-22 10:30N 57°11' W 001°59'0 0.0
2017-Apr-22 10:00N 57°11' W 001°59'0 0.1
2017-Apr-22 09:30N 57°11' W 001°59'0 0.0
2017-Apr-22 09:00N 57°11' W 001°59'0 0.0
2017-Apr-22 08:30N 57°11' W 001°59'0 0.1
2017-Apr-22 08:00N 57°11' W 001°59'0 0.0
2017-Apr-22 07:30N 57°11' W 001°59'0 0.0
2017-Apr-22 07:00N 57°11' W 001°59'0 0.1
2017-Apr-22 06:30N 57°11' W 001°59'0 0.0
2017-Apr-22 06:00N 57°11' W 001°59'0 0.0
2017-Apr-22 05:30N 57°11' W 001°59'0 0.0
2017-Apr-22 05:00N 57°11' W 001°59'0 0.0
2017-Apr-22 04:30N 57°11' W 001°59'0 0.1
2017-Apr-22 04:00N 57°11' W 001°59'0 0.0
2017-Apr-22 03:30N 57°11' W 001°59'0 0.0
2017-Apr-22 03:00N 57°11' W 001°59'0 0.0
2017-Apr-22 02:30N 57°11' W 001°59'0 0.0
2017-Apr-22 02:00N 57°11' W 001°59'0 0.0
2017-Apr-22 01:30N 57°11' W 001°59'0 0.0
2017-Apr-22 01:00N 57°11' W 001°59'0 0.0
2017-Apr-22 00:30N 57°11' W 001°59'0 0.0
2017-Apr-22 00:00N 57°11' W 001°59'0 0.0
2017-Apr-21 23:30N 57°11' W 001°59'0 0.0
2017-Apr-21 23:00N 57°11' W 001°59'0 0.0
2017-Apr-21 22:30N 57°11' W 001°59'0 0.0
2017-Apr-21 22:00N 57°11' W 001°59'0 0.0
2017-Apr-21 21:30N 57°11' W 001°59'0 0.0
2017-Apr-21 21:00N 57°11' W 001°59'0 0.0
2017-Apr-21 20:30N 57°11' W 001°59'0 0.1
2017-Apr-21 20:00N 57°11' W 001°59'2 4.2
2017-Apr-21 19:30N 57°09' W 001°58'5 9.9
2017-Apr-21 19:00N 57°05' W 001°54'5 9.4
2017-Apr-21 18:30N 57°00' W 001°50'14010.3
2017-Apr-21 04:56N 54°53' W 000°04'511.0
2017-Apr-21 04:30N 54°49' W 000°00'611.0
2017-Apr-21 04:00N 54°44' E 000°04'611.0
2017-Apr-21 03:30N 54°39' E 000°08'510.9
2017-Apr-21 03:00N 54°34' E 000°12'510.6
2017-Apr-21 02:30N 54°29' E 000°16'510.5
2017-Apr-21 02:00N 54°25' E 000°19'510.4
2017-Apr-21 01:30N 54°20' E 000°23'510.1
2017-Apr-21 01:00N 54°15' E 000°27'510.1
2017-Apr-21 00:29N 54°11' E 000°31'510.0
2017-Apr-21 00:00N 54°06' E 000°34'5010.9
2017-Apr-20 19:23N 53°20' E 001°09'512.1
2017-Apr-20 18:58N 53°16' E 001°13'612.0
2017-Apr-20 18:30N 53°11' E 001°18'611.7
2017-Apr-20 18:00N 53°06' E 001°22'611.4
2017-Apr-20 17:30N 53°01' E 001°27'611.0
2017-Apr-20 17:00N 52°57' E 001°33'510.7
2017-Apr-20 16:30N 52°53' E 001°39'510.3
2017-Apr-20 16:00N 52°49' E 001°45'5 9.9
2017-Apr-20 15:30N 52°47' E 001°52'4 9.0
2017-Apr-20 15:00N 52°43' E 001°56'5 9.5
2017-Apr-20 14:30N 52°38' E 001°56'2410.1
2017-Apr-20 12:10N 52°15' E 001°52'211.0
2017-Apr-20 12:00N 52°13' E 001°51'611.3
2017-Apr-20 11:30N 52°07' E 001°51'611.6
2017-Apr-20 11:00N 52°02' E 001°50'611.8
2017-Apr-20 10:30N 51°56' E 001°48'611.9
2017-Apr-20 10:00N 51°50' E 001°48'612.1
2017-Apr-20 09:30N 51°44' E 001°49'611.6
2017-Apr-20 09:00N 51°38' E 001°51'510.8
2017-Apr-20 08:30N 51°34' E 001°56'611.5
2017-Apr-20 08:00N 51°28' E 001°59'611.1
2017-Apr-20 07:30N 51°23' E 002°02'612.4
2017-Apr-20 07:00N 51°18' E 001°56'612.6
2017-Apr-20 06:30N 51°13' E 001°50'713.1
2017-Apr-20 06:00N 51°08' E 001°43'713.2
2017-Apr-20 05:30N 51°03' E 001°36'713.3
2017-Apr-20 05:00N 50°58' E 001°30'712.8
2017-Apr-20 04:29N 50°52' E 001°26'5311.0
2017-Apr-19 23:42N 50°23' E 000°16'310.9
2017-Apr-19 23:23N 50°22' E 000°11'410.7
2017-Apr-19 23:00N 50°21' E 000°05'5 9.5
2017-Apr-19 22:30N 50°17' E 000°00'510.5
2017-Apr-19 22:00N 50°12' W 000°02'510.3
2017-Apr-19 21:30N 50°07' W 000°03'510.1
2017-Apr-19 21:00N 50°02' W 000°05'510.1
2017-Apr-19 20:30N 49°57' W 000°07'510.0
2017-Apr-19 20:00N 49°52' W 000°09'510.0
2017-Apr-19 19:30N 49°47' W 000°10'510.0
2017-Apr-19 19:00N 49°42' W 000°11'510.5
2017-Apr-19 18:30N 49°37' W 000°10'510.2
2017-Apr-19 18:00N 49°32' W 000°11'5 9.9
2017-Apr-19 17:30N 49°29' W 000°05'611.0
2017-Apr-19 17:00N 49°27' E 000°03'611.8
2017-Apr-19 16:30N 49°26' E 000°11'2 3.8
2017-Apr-19 15:58N 49°26' E 000°15'0 0.0
2017-Apr-19 15:28N 49°26' E 000°15'0 0.0
2017-Apr-19 14:58N 49°26' E 000°15'0 0.0
2017-Apr-19 14:28N 49°26' E 000°15'0 0.0
2017-Apr-19 13:25N 49°26' E 000°15'0 0.0
2017-Apr-19 12:58N 49°26' E 000°15'0 0.0
2017-Apr-19 12:28N 49°26' E 000°15'0 0.0
2017-Apr-19 11:58N 49°26' E 000°15'0 0.0
2017-Apr-19 11:28N 49°26' E 000°15'0 0.0
2017-Apr-19 10:58N 49°26' E 000°15'0 0.0
2017-Apr-19 10:28N 49°26' E 000°15'0 0.0
2017-Apr-19 09:58N 49°26' E 000°15'0 0.0
2017-Apr-19 09:28N 49°26' E 000°15'0 0.0
2017-Apr-19 08:58N 49°26' E 000°15'0 0.0
2017-Apr-19 08:28N 49°26' E 000°15'0 0.0
2017-Apr-19 07:58N 49°26' E 000°15'0 0.0
2017-Apr-19 07:28N 49°26' E 000°15'0 0.0
2017-Apr-19 06:58N 49°26' E 000°15'0 0.0
2017-Apr-19 06:28N 49°26' E 000°15'0 0.0
2017-Apr-19 05:58N 49°26' E 000°15'0 0.0
2017-Apr-19 05:28N 49°26' E 000°15'0 0.0
2017-Apr-19 04:58N 49°26' E 000°15'0 0.0
2017-Apr-19 04:28N 49°26' E 000°15'0 0.0
2017-Apr-19 03:58N 49°26' E 000°15'0 0.0
2017-Apr-19 03:28N 49°26' E 000°15'0 0.0
2017-Apr-19 02:58N 49°26' E 000°15'0 0.0
2017-Apr-19 02:28N 49°26' E 000°15'0 0.0
2017-Apr-19 01:58N 49°26' E 000°15'0 0.0
2017-Apr-19 01:28N 49°26' E 000°15'0 0.0
2017-Apr-19 00:58N 49°26' E 000°15'0 0.0
2017-Apr-19 00:28N 49°26' E 000°15'0 0.0
2017-Apr-18 23:58N 49°26' E 000°15'0 0.0
2017-Apr-18 23:28N 49°26' E 000°15'0 0.0
2017-Apr-18 22:58N 49°26' E 000°15'0 0.0
2017-Apr-18 22:28N 49°26' E 000°15'0 0.0
2017-Apr-18 21:58N 49°26' E 000°15'0 0.0
2017-Apr-18 21:28N 49°26' E 000°15'0 0.0
2017-Apr-18 20:58N 49°26' E 000°15'0 0.0
2017-Apr-18 20:28N 49°26' E 000°15'0 0.0
2017-Apr-18 19:58N 49°26' E 000°15'0 0.0
2017-Apr-18 19:28N 49°26' E 000°15'0 0.0
2017-Apr-18 18:58N 49°26' E 000°15'0 0.0
2017-Apr-18 18:28N 49°26' E 000°15'0 0.0
2017-Apr-18 17:58N 49°26' E 000°15'0 0.0
2017-Apr-18 17:28N 49°26' E 000°15'0 0.0
2017-Apr-18 16:58N 49°26' E 000°15'0 0.0
2017-Apr-18 16:28N 49°26' E 000°15'0 0.0
2017-Apr-18 15:58N 49°26' E 000°15'0 0.0
2017-Apr-18 15:28N 49°26' E 000°15'0 0.0
2017-Apr-18 14:58N 49°26' E 000°15'0 0.0
2017-Apr-18 14:28N 49°26' E 000°15'0 0.0
2017-Apr-18 13:28N 49°26' E 000°15'0 0.0
2017-Apr-18 12:58N 49°26' E 000°15'0 0.0
2017-Apr-18 12:28N 49°26' E 000°15'0 0.0
2017-Apr-18 11:58N 49°26' E 000°15'0 0.0
2017-Apr-18 11:28N 49°26' E 000°15'  
Track history (hours):
 
Tides and Currents Weather Stations Pressure Air Temp Water Temp Dewpoint Dewpoint Depression Visibility Wind Speed Wind Dir Waves Ship Positions

Betancuria

Last reported at 2017-Apr-28 11:02 UTC. Time now 2017-Apr-30 20:31 UTC.
Position N 49°48' W 003°23'.

Length 141 m; draft 4.7 m.

Type: Ship. MMSI: 224471000.

Date/timePositionNaut miles runAvg speedWind from/ knotsBaromVisibWave heightAir tempDewpointWater temp
2017-Apr-28 11:02N 49°48' W 003°23'011.4
2017-Apr-28 11:00N 49°48' W 003°22'811.0
2017-Apr-28 10:18N 49°52' W 003°12'10 9.7
2017-Apr-28 09:17N 49°57' W 002°59'2 8.9
2017-Apr-28 09:00N 49°58' W 002°55'4 8.7
2017-Apr-28 08:30N 49°60' W 002°49'5 8.5
2017-Apr-28 07:58N 50°01' W 002°42'9311.9
2017-Apr-28 00:12N 50°26' W 000°23'210.4
2017-Apr-28 00:01N 50°27' W 000°20'510.0
2017-Apr-27 23:30N 50°28' W 000°12'6 9.2
2017-Apr-27 22:49N 50°30' W 000°03'3 8.5
2017-Apr-27 22:30N 50°31' E 000°01'5 8.0
2017-Apr-27 21:51N 50°32' E 000°09'3 7.7
2017-Apr-27 21:30N 50°33' E 000°13'4 7.7
2017-Apr-27 20:58N 50°34' E 000°20'4 8.1
2017-Apr-27 20:26N 50°35' E 000°26'4 9.0
2017-Apr-27 20:00N 50°36' E 000°32'5 9.9
2017-Apr-27 19:30N 50°39' E 000°39'510.9
2017-Apr-27 19:00N 50°42' E 000°46'611.7
2017-Apr-27 18:31N 50°45' E 000°54'1912.0
2017-Apr-27 16:56N 50°55' E 001°19'511.5
2017-Apr-27 16:30N 50°59' E 001°24'510.5
2017-Apr-27 16:01N 51°03' E 001°30'5 9.3
2017-Apr-27 15:30N 51°07' E 001°35'4 8.5
2017-Apr-27 15:00N 51°10' E 001°39'8 7.7
2017-Apr-27 14:00N 51°16' E 001°47'4 7.7
2017-Apr-27 13:30N 51°19' E 001°49'4 8.1
2017-Apr-27 13:00N 51°23' E 001°51'4 8.7
2017-Apr-27 12:30N 51°27' E 001°53'5 9.8
2017-Apr-27 12:01N 51°32' E 001°50'510.5
2017-Apr-27 11:31N 51°37' E 001°47'611.1
2017-Apr-27 11:00N 51°42' E 001°45'612.2
2017-Apr-27 10:31N 51°48' E 001°44'712.8
2017-Apr-27 10:00N 51°55' E 001°45'612.9
2017-Apr-27 09:30N 52°01' E 001°46'713.2
2017-Apr-27 09:00N 52°07' E 001°48'613.0
2017-Apr-27 08:31N 52°14' E 001°50'3112.9
2017-Apr-27 06:05N 52°45' E 001°55'111.9
2017-Apr-27 06:00N 52°46' E 001°54'611.9
2017-Apr-27 05:30N 52°49' E 001°46'611.1
2017-Apr-27 05:00N 52°53' E 001°39'510.7
2017-Apr-27 04:31N 52°57' E 001°33'5 9.9
2017-Apr-27 04:00N 53°01' E 001°28'5 9.4
2017-Apr-27 03:30N 53°04' E 001°23'5 9.1
2017-Apr-27 03:00N 53°08' E 001°20'4 8.8
2017-Apr-27 02:30N 53°12' E 001°16'79 9.0
2017-Apr-26 17:46N 54°24' E 000°20'311.1
2017-Apr-26 17:30N 54°26' E 000°18'611.3
2017-Apr-26 17:00N 54°31' E 000°14'611.5
2017-Apr-26 16:31N 54°37' E 000°09'611.6
2017-Apr-26 16:00N 54°42' E 000°05'611.6
2017-Apr-26 15:31N 54°47' E 000°01'14410.4
2017-Apr-26 01:37N 56°57' W 001°51'111.2
2017-Apr-26 01:31N 56°58' W 001°52'611.1
2017-Apr-26 01:01N 57°03' W 001°57'611.5
2017-Apr-26 00:30N 57°08' W 001°59'3 6.3
2017-Apr-26 00:01N 57°09' W 002°05'0 0.3
2017-Apr-25 23:29N 57°09' W 002°05'0 0.0
2017-Apr-25 22:59N 57°09' W 002°05'0 0.0
2017-Apr-25 22:29N 57°09' W 002°05'0 0.0
2017-Apr-25 21:59N 57°09' W 002°05'0 0.0
2017-Apr-25 21:25N 57°09' W 002°05'0 0.0
2017-Apr-25 20:58N 57°09' W 002°05'0 0.0
2017-Apr-25 20:28N 57°09' W 002°05'0 0.0
2017-Apr-25 19:58N 57°09' W 002°05'0 0.0
2017-Apr-25 19:28N 57°09' W 002°05'0 0.0
2017-Apr-25 18:58N 57°09' W 002°05'0 0.0
2017-Apr-25 18:28N 57°09' W 002°05'0 0.0
2017-Apr-25 17:58N 57°09' W 002°05'0 0.0
2017-Apr-25 17:28N 57°09' W 002°05'0 0.0
2017-Apr-25 16:58N 57°09' W 002°05'0 0.0
2017-Apr-25 16:28N 57°09' W 002°05'0 0.0
2017-Apr-25 15:58N 57°09' W 002°05'0 0.0
2017-Apr-25 15:28N 57°09' W 002°05'0 0.0
2017-Apr-25 14:55N 57°09' W 002°05'0 0.0
2017-Apr-25 14:28N 57°09' W 002°05'0 0.0
2017-Apr-25 13:28N 57°09' W 002°05'0 0.0
2017-Apr-25 12:58N 57°09' W 002°05'0 0.0
2017-Apr-25 12:28N 57°09' W 002°05'0 0.0
2017-Apr-25 11:58N 57°09' W 002°05'0 0.0
2017-Apr-25 11:28N 57°09' W 002°05'0 0.0
2017-Apr-25 10:58N 57°09' W 002°05'0 0.0
2017-Apr-25 10:28N 57°09' W 002°05'0 0.0
2017-Apr-25 09:58N 57°09' W 002°05'0 0.0
2017-Apr-25 09:28N 57°09' W 002°05'0 0.0
2017-Apr-25 08:58N 57°09' W 002°05'0 0.0
2017-Apr-25 08:28N 57°09' W 002°05'0 0.0
2017-Apr-25 07:58N 57°09' W 002°05'0 0.0
2017-Apr-25 07:28N 57°09' W 002°05'0 0.0
2017-Apr-25 06:55N 57°09' W 002°05'0 0.0
2017-Apr-25 06:25N 57°09' W 002°05'0 0.0
2017-Apr-25 05:55N 57°09' W 002°05'0 0.0
2017-Apr-25 05:28N 57°09' W 002°05'0 0.0
2017-Apr-25 04:55N 57°09' W 002°05'0 0.0
2017-Apr-25 04:28N 57°09' W 002°05'0 0.0
2017-Apr-25 03:58N 57°09' W 002°05'0 0.0
2017-Apr-25 03:28N 57°09' W 002°05'0 0.0
2017-Apr-25 02:58N 57°09' W 002°05'0 0.0
2017-Apr-25 02:28N 57°09' W 002°05'0 0.0
2017-Apr-25 01:58N 57°09' W 002°05'0 0.0
2017-Apr-25 01:28N 57°09' W 002°05'0 0.0
2017-Apr-25 00:58N 57°09' W 002°05'0 0.0
2017-Apr-25 00:28N 57°09' W 002°05'0 0.0
2017-Apr-24 23:55N 57°09' W 002°05'0 0.0
2017-Apr-24 23:28N 57°09' W 002°05'0 0.0
2017-Apr-24 22:58N 57°09' W 002°05'0 0.0
2017-Apr-24 22:28N 57°09' W 002°05'0 0.0
2017-Apr-24 21:58N 57°09' W 002°05'0 0.0
2017-Apr-24 21:25N 57°09' W 002°05'0 0.0
2017-Apr-24 20:58N 57°09' W 002°05'0 0.0
2017-Apr-24 20:28N 57°09' W 002°05'0 0.0
2017-Apr-24 19:55N 57°09' W 002°05'0 0.0
2017-Apr-24 19:28N 57°09' W 002°05'0 0.0
2017-Apr-24 18:58N 57°09' W 002°05'0 0.0
2017-Apr-24 18:28N 57°09' W 002°05'0 0.0
2017-Apr-24 17:58N 57°09' W 002°05'0 0.0
2017-Apr-24 17:28N 57°09' W 002°05'0 0.0
2017-Apr-24 16:58N 57°09' W 002°05'0 0.0
2017-Apr-24 16:28N 57°09' W 002°05'0 0.0
2017-Apr-24 15:58N 57°09' W 002°05'0 0.0
2017-Apr-24 15:28N 57°09' W 002°05'0 0.0
2017-Apr-24 14:55N 57°09' W 002°05'0 0.0
2017-Apr-24 14:28N 57°09' W 002°05'0 0.0
2017-Apr-24 13:28N 57°09' W 002°05'0 0.0
2017-Apr-24 12:58N 57°09' W 002°05'0 0.0
2017-Apr-24 12:25N 57°09' W 002°05'0 0.0
2017-Apr-24 11:55N 57°09' W 002°05'0 0.0
2017-Apr-24 11:28N 57°09' W 002°05'0 0.0
2017-Apr-24 10:58N 57°09' W 002°05'0 0.0
2017-Apr-24 10:28N 57°09' W 002°05'0 0.0
2017-Apr-24 09:58N 57°09' W 002°05'0 0.0
2017-Apr-24 09:28N 57°09' W 002°05'0 0.0
2017-Apr-24 08:58N 57°09' W 002°05'0 0.0
2017-Apr-24 08:28N 57°09' W 002°05'0 0.0
2017-Apr-24 07:58N 57°09' W 002°05'0 0.0
2017-Apr-24 07:28N 57°09' W 002°05'0 0.0
2017-Apr-24 06:55N 57°09' W 002°05'0 0.0
2017-Apr-24 06:25N 57°09' W 002°05'0 0.0
2017-Apr-24 05:55N 57°09' W 002°05'0 0.0
2017-Apr-24 05:25N 57°09' W 002°05'0 0.0
2017-Apr-24 04:58N 57°09' W 002°05'0 0.0
2017-Apr-24 04:28N 57°09' W 002°05'0 0.0
2017-Apr-24 03:58N 57°09' W 002°05'0 0.0
2017-Apr-24 03:28N 57°09' W 002°05'0 0.0
2017-Apr-24 02:58N 57°09' W 002°05'0 0.0
2017-Apr-24 02:28N 57°09' W 002°05'0 0.0
2017-Apr-24 01:58N 57°09' W 002°05'0 0.0
2017-Apr-24 01:25N 57°09' W 002°05'0 0.0
2017-Apr-24 00:58N 57°09' W 002°05'0 0.0
2017-Apr-24 00:28N 57°09' W 002°05'0 0.0
2017-Apr-23 23:58N 57°09' W 002°05'0 0.0
2017-Apr-23 23:28N 57°09' W 002°05'0 0.0
2017-Apr-23 22:58N 57°09' W 002°05'0 0.0
2017-Apr-23 22:28N 57°09' W 002°05'0 0.0
2017-Apr-23 21:55N 57°09' W 002°05'0 0.0
2017-Apr-23 21:25N 57°09' W 002°05'0 0.0
2017-Apr-23 20:58N 57°09' W 002°05'0 0.0
2017-Apr-23 20:28N 57°09' W 002°05'0 0.0
2017-Apr-23 19:58N 57°09' W 002°05'0 0.0
2017-Apr-23 19:28N 57°09' W 002°05'0 0.0
2017-Apr-23 18:55N 57°09' W 002°05'0 0.0
2017-Apr-23 18:28N 57°09' W 002°05'0 0.0
2017-Apr-23 17:58N 57°09' W 002°05'0 0.0
2017-Apr-23 17:28N 57°09' W 002°05'0 0.0
2017-Apr-23 16:55N 57°09' W 002°05'0 0.0
2017-Apr-23 16:28N 57°09' W 002°05'0 0.0
2017-Apr-23 15:58N 57°09' W 002°05'0 0.0
2017-Apr-23 15:28N 57°09' W 002°05'0 0.0
2017-Apr-23 14:55N 57°09' W 002°05'0 0.0
2017-Apr-23 13:55N 57°09' W 002°05'0 0.0
2017-Apr-23 13:28N 57°09' W 002°05'0 0.0
2017-Apr-23 12:55N 57°09' W 002°05'0 0.0
2017-Apr-23 12:28N 57°09' W 002°05'0 0.0
2017-Apr-23 11:58N 57°09' W 002°05'0 0.0
2017-Apr-23 11:28N 57°09' W 002°05'0 0.0
2017-Apr-23 10:58N 57°09' W 002°05'0 0.0
2017-Apr-23 10:25N 57°09' W 002°05'0 0.0
2017-Apr-23 09:58N 57°09' W 002°05'0 0.0
2017-Apr-23 09:28N 57°09' W 002°05'0 0.0
2017-Apr-23 08:58N 57°09' W 002°05'0 0.0
2017-Apr-23 08:28N 57°09' W 002°05'0 0.0
2017-Apr-23 07:58N 57°09' W 002°05'0 0.0
2017-Apr-23 07:28N 57°09' W 002°05'0 0.0
2017-Apr-23 06:58N 57°09' W 002°05'0 0.0
2017-Apr-23 06:28N 57°09' W 002°05'0 0.0
2017-Apr-23 05:58N 57°09' W 002°05'0 0.0
2017-Apr-23 05:28N 57°09' W 002°05'0 0.0
2017-Apr-23 04:58N 57°09' W 002°05'0 0.0
2017-Apr-23 04:28N 57°09' W 002°05'0 0.0
2017-Apr-23 03:58N 57°09' W 002°05'0 0.0
2017-Apr-23 03:28N 57°09' W 002°05'0 0.0
2017-Apr-23 02:58N 57°09' W 002°05'0 0.0
2017-Apr-23 02:28N 57°09' W 002°05'0 0.0
2017-Apr-23 01:58N 57°09' W 002°05'0 0.0
2017-Apr-23 01:28N 57°09' W 002°05'0 0.0
2017-Apr-23 00:58N 57°09' W 002°05'0 0.0
2017-Apr-23 00:28N 57°09' W 002°05'0 0.0
2017-Apr-22 23:58N 57°09' W 002°05'0 0.0
2017-Apr-22 23:28N 57°09' W 002°05'0 0.0
2017-Apr-22 22:58N 57°09' W 002°05'0 0.0
2017-Apr-22 22:28N 57°09' W 002°05'0 0.0
2017-Apr-22 21:58N 57°09' W 002°05'0 0.0
2017-Apr-22 21:28N 57°09' W 002°05'0 0.0
2017-Apr-22 20:58N 57°09' W 002°05'0 0.0
2017-Apr-22 20:28N 57°09' W 002°05'0 0.0
2017-Apr-22 19:58N 57°09' W 002°05'0 0.0
2017-Apr-22 19:28N 57°09' W 002°05'0 0.0
2017-Apr-22 18:58N 57°09' W 002°05'0 0.1
2017-Apr-22 18:30N 57°09' W 002°05'1 1.8
2017-Apr-22 18:01N 57°09' W 002°04'3 6.3
2017-Apr-22 17:31N 57°11' W 001°59'0 0.6
2017-Apr-22 17:00N 57°11' W 001°59'0 0.0
2017-Apr-22 16:30N 57°11' W 001°59'0 0.1
2017-Apr-22 16:00N 57°11' W 001°59'0 0.0
2017-Apr-22 15:30N 57°11' W 001°59'0 0.1
2017-Apr-22 15:00N 57°11' W 001°59'0 0.0
2017-Apr-22 14:30N 57°11' W 001°59'0 0.0
2017-Apr-22 13:30N 57°11' W 001°59'0 0.0
2017-Apr-22 13:00N 57°11' W 001°59'0 0.0
2017-Apr-22 12:30N 57°11' W 001°59'0 0.0
2017-Apr-22 12:00N 57°11' W 001°59'0 0.0
2017-Apr-22 11:30N 57°11' W 001°59'0 0.0
2017-Apr-22 11:00N 57°11' W 001°59'0 0.0
2017-Apr-22 10:30N 57°11' W 001°59'0 0.0
2017-Apr-22 10:00N 57°11' W 001°59'0 0.1
2017-Apr-22 09:30N 57°11' W 001°59'0 0.0
2017-Apr-22 09:00N 57°11' W 001°59'0 0.0
2017-Apr-22 08:30N 57°11' W 001°59'0 0.1
2017-Apr-22 08:00N 57°11' W 001°59'0 0.0
2017-Apr-22 07:30N 57°11' W 001°59'0 0.0
2017-Apr-22 07:00N 57°11' W 001°59'0 0.1
2017-Apr-22 06:30N 57°11' W 001°59'0 0.0
2017-Apr-22 06:00N 57°11' W 001°59'0 0.0
2017-Apr-22 05:30N 57°11' W 001°59'0 0.0
2017-Apr-22 05:00N 57°11' W 001°59'0 0.0
2017-Apr-22 04:30N 57°11' W 001°59'0 0.1
2017-Apr-22 04:00N 57°11' W 001°59'0 0.0
2017-Apr-22 03:30N 57°11' W 001°59'0 0.0
2017-Apr-22 03:00N 57°11' W 001°59'0 0.0
2017-Apr-22 02:30N 57°11' W 001°59'0 0.0
2017-Apr-22 02:00N 57°11' W 001°59'0 0.0
2017-Apr-22 01:30N 57°11' W 001°59'0 0.0
2017-Apr-22 01:00N 57°11' W 001°59'0 0.0
2017-Apr-22 00:30N 57°11' W 001°59'0 0.0
2017-Apr-22 00:00N 57°11' W 001°59'0 0.0
2017-Apr-21 23:30N 57°11' W 001°59'0 0.0
2017-Apr-21 23:00N 57°11' W 001°59'0 0.0
2017-Apr-21 22:30N 57°11' W 001°59'0 0.0
2017-Apr-21 22:00N 57°11' W 001°59'0 0.0
2017-Apr-21 21:30N 57°11' W 001°59'0 0.0
2017-Apr-21 21:00N 57°11' W 001°59'0 0.0
2017-Apr-21 20:30N 57°11' W 001°59'0 0.1
2017-Apr-21 20:00N 57°11' W 001°59'2 4.2
2017-Apr-21 19:30N 57°09' W 001°58'5 9.9
2017-Apr-21 19:00N 57°05' W 001°54'5 9.4
2017-Apr-21 18:30N 57°00' W 001°50'14010.3
2017-Apr-21 04:56N 54°53' W 000°04'511.0
2017-Apr-21 04:30N 54°49' W 000°00'611.0
2017-Apr-21 04:00N 54°44' E 000°04'611.0
2017-Apr-21 03:30N 54°39' E 000°08'510.9
2017-Apr-21 03:00N 54°34' E 000°12'510.6
2017-Apr-21 02:30N 54°29' E 000°16'510.5
2017-Apr-21 02:00N 54°25' E 000°19'510.4
2017-Apr-21 01:30N 54°20' E 000°23'510.1
2017-Apr-21 01:00N 54°15' E 000°27'510.1
2017-Apr-21 00:29N 54°11' E 000°31'510.0
2017-Apr-21 00:00N 54°06' E 000°34'5010.9
2017-Apr-20 19:23N 53°20' E 001°09'512.1
2017-Apr-20 18:58N 53°16' E 001°13'612.0
2017-Apr-20 18:30N 53°11' E 001°18'611.7
2017-Apr-20 18:00N 53°06' E 001°22'611.4
2017-Apr-20 17:30N 53°01' E 001°27'611.0
2017-Apr-20 17:00N 52°57' E 001°33'510.7
2017-Apr-20 16:30N 52°53' E 001°39'510.3
2017-Apr-20 16:00N 52°49' E 001°45'5 9.9
2017-Apr-20 15:30N 52°47' E 001°52'4 9.0
2017-Apr-20 15:00N 52°43' E 001°56'5 9.5
2017-Apr-20 14:30N 52°38' E 001°56'2410.1
2017-Apr-20 12:10N 52°15' E 001°52'211.0
2017-Apr-20 12:00N 52°13' E 001°51'611.3
2017-Apr-20 11:30N 52°07' E 001°51'611.6
2017-Apr-20 11:00N 52°02' E 001°50'611.8
2017-Apr-20 10:30N 51°56' E 001°48'611.9
2017-Apr-20 10:00N 51°50' E 001°48'612.1
2017-Apr-20 09:30N 51°44' E 001°49'611.6
2017-Apr-20 09:00N 51°38' E 001°51'510.8
2017-Apr-20 08:30N 51°34' E 001°56'611.5
2017-Apr-20 08:00N 51°28' E 001°59'611.1
2017-Apr-20 07:30N 51°23' E 002°02'612.4
2017-Apr-20 07:00N 51°18' E 001°56'612.6
2017-Apr-20 06:30N 51°13' E 001°50'713.1
2017-Apr-20 06:00N 51°08' E 001°43'713.2
2017-Apr-20 05:30N 51°03' E 001°36'713.3
2017-Apr-20 05:00N 50°58' E 001°30'712.8
2017-Apr-20 04:29N 50°52' E 001°26'5311.0
2017-Apr-19 23:42N 50°23' E 000°16'310.9
2017-Apr-19 23:23N 50°22' E 000°11'410.7
2017-Apr-19 23:00N 50°21' E 000°05'5 9.5
2017-Apr-19 22:30N 50°17' E 000°00'510.5
2017-Apr-19 22:00N 50°12' W 000°02'510.3
2017-Apr-19 21:30N 50°07' W 000°03'510.1
2017-Apr-19 21:00N 50°02' W 000°05'510.1
2017-Apr-19 20:30N 49°57' W 000°07'510.0
2017-Apr-19 20:00N 49°52' W 000°09'510.0
2017-Apr-19 19:30N 49°47' W 000°10'510.0
2017-Apr-19 19:00N 49°42' W 000°11'510.5
2017-Apr-19 18:30N 49°37' W 000°10'510.2
2017-Apr-19 18:00N 49°32' W 000°11'5 9.9
2017-Apr-19 17:30N 49°29' W 000°05'611.0
2017-Apr-19 17:00N 49°27' E 000°03'611.8
2017-Apr-19 16:30N 49°26' E 000°11'2 3.8
2017-Apr-19 15:58N 49°26' E 000°15'0 0.0
2017-Apr-19 15:28N 49°26' E 000°15'0 0.0
2017-Apr-19 14:58N 49°26' E 000°15'0 0.0
2017-Apr-19 14:28N 49°26' E 000°15'0 0.0
2017-Apr-19 13:25N 49°26' E 000°15'0 0.0
2017-Apr-19 12:58N 49°26' E 000°15'0 0.0
2017-Apr-19 12:28N 49°26' E 000°15'0 0.0
2017-Apr-19 11:58N 49°26' E 000°15'0 0.0
2017-Apr-19 11:28N 49°26' E 000°15'0 0.0
2017-Apr-19 10:58N 49°26' E 000°15'0 0.0
2017-Apr-19 10:28N 49°26' E 000°15'0 0.0
2017-Apr-19 09:58N 49°26' E 000°15'0 0.0
2017-Apr-19 09:28N 49°26' E 000°15'0 0.0
2017-Apr-19 08:58N 49°26' E 000°15'0 0.0
2017-Apr-19 08:28N 49°26' E 000°15'0 0.0
2017-Apr-19 07:58N 49°26' E 000°15'0 0.0
2017-Apr-19 07:28N 49°26' E 000°15'0 0.0
2017-Apr-19 06:58N 49°26' E 000°15'0 0.0
2017-Apr-19 06:28N 49°26' E 000°15'0 0.0
2017-Apr-19 05:58N 49°26' E 000°15'0 0.0
2017-Apr-19 05:28N 49°26' E 000°15'0 0.0
2017-Apr-19 04:58N 49°26' E 000°15'0 0.0
2017-Apr-19 04:28N 49°26' E 000°15'0 0.0
2017-Apr-19 03:58N 49°26' E 000°15'0 0.0
2017-Apr-19 03:28N 49°26' E 000°15'0 0.0
2017-Apr-19 02:58N 49°26' E 000°15'0 0.0
2017-Apr-19 02:28N 49°26' E 000°15'0 0.0
2017-Apr-19 01:58N 49°26' E 000°15'0 0.0
2017-Apr-19 01:28N 49°26' E 000°15'0 0.0
2017-Apr-19 00:58N 49°26' E 000°15'0 0.0
2017-Apr-19 00:28N 49°26' E 000°15'0 0.0
2017-Apr-18 23:58N 49°26' E 000°15'0 0.0
2017-Apr-18 23:28N 49°26' E 000°15'0 0.0
2017-Apr-18 22:58N 49°26' E 000°15'0 0.0
2017-Apr-18 22:28N 49°26' E 000°15'0 0.0
2017-Apr-18 21:58N 49°26' E 000°15'0 0.0
2017-Apr-18 21:28N 49°26' E 000°15'0 0.0
2017-Apr-18 20:58N 49°26' E 000°15'0 0.0
2017-Apr-18 20:28N 49°26' E 000°15'0 0.0
2017-Apr-18 19:58N 49°26' E 000°15'0 0.0
2017-Apr-18 19:28N 49°26' E 000°15'0 0.0
2017-Apr-18 18:58N 49°26' E 000°15'0 0.0
2017-Apr-18 18:28N 49°26' E 000°15'0 0.0
2017-Apr-18 17:58N 49°26' E 000°15'0 0.0
2017-Apr-18 17:28N 49°26' E 000°15'0 0.0
2017-Apr-18 16:58N 49°26' E 000°15'0 0.0
2017-Apr-18 16:28N 49°26' E 000°15'0 0.0
2017-Apr-18 15:58N 49°26' E 000°15'0 0.0
2017-Apr-18 15:28N 49°26' E 000°15'0 0.0
2017-Apr-18 14:58N 49°26' E 000°15'0 0.0
2017-Apr-18 14:28N 49°26' E 000°15'0 0.0
2017-Apr-18 13:28N 49°26' E 000°15'0 0.0
2017-Apr-18 12:58N 49°26' E 000°15'0 0.0
2017-Apr-18 12:28N 49°26' E 000°15'0 0.0
2017-Apr-18 11:58N 49°26' E 000°15'0 0.0
2017-Apr-18 11:28N 49°26' E 000°15'  

Dump ship's entire track history